sensor_id;sensor_type;location;lat;lon;timestamp;P1;durP1;ratioP1;P2;durP2;ratioP2
2175;SDS011;1094;49.902;10.876;2023-04-03T00:01:16;21.70;;;20.15;;
2175;SDS011;1094;49.902;10.876;2023-04-03T00:03:42;21.58;;;20.38;;
2175;SDS011;1094;49.902;10.876;2023-04-03T00:06:08;20.77;;;19.57;;
2175;SDS011;1094;49.902;10.876;2023-04-03T00:08:36;21.00;;;19.70;;
2175;SDS011;1094;49.902;10.876;2023-04-03T00:11:02;21.50;;;20.30;;
2175;SDS011;1094;49.902;10.876;2023-04-03T00:13:28;21.17;;;20.00;;
2175;SDS011;1094;49.902;10.876;2023-04-03T00:15:54;20.83;;;19.73;;
2175;SDS011;1094;49.902;10.876;2023-04-03T00:18:21;21.43;;;20.23;;
2175;SDS011;1094;49.902;10.876;2023-04-03T00:23:22;22.20;;;20.90;;
2175;SDS011;1094;49.902;10.876;2023-04-03T00:25:49;20.90;;;19.70;;
2175;SDS011;1094;49.902;10.876;2023-04-03T00:28:15;21.07;;;19.73;;
2175;SDS011;1094;49.902;10.876;2023-04-03T00:30:42;21.67;;;20.37;;
2175;SDS011;1094;49.902;10.876;2023-04-03T00:33:09;21.70;;;20.50;;
2175;SDS011;1094;49.902;10.876;2023-04-03T00:35:36;24.23;;;22.63;;
2175;SDS011;1094;49.902;10.876;2023-04-03T00:38:02;22.77;;;21.37;;
2175;SDS011;1094;49.902;10.876;2023-04-03T00:40:32;21.90;;;20.73;;
2175;SDS011;1094;49.902;10.876;2023-04-03T00:42:59;21.63;;;20.33;;
2175;SDS011;1094;49.902;10.876;2023-04-03T00:45:27;21.93;;;20.70;;
2175;SDS011;1094;49.902;10.876;2023-04-03T00:47:54;21.17;;;20.07;;
2175;SDS011;1094;49.902;10.876;2023-04-03T00:50:22;21.83;;;20.53;;
2175;SDS011;1094;49.902;10.876;2023-04-03T00:52:48;21.67;;;20.30;;
2175;SDS011;1094;49.902;10.876;2023-04-03T00:55:14;21.70;;;20.50;;
2175;SDS011;1094;49.902;10.876;2023-04-03T00:57:41;21.07;;;19.87;;
2175;SDS011;1094;49.902;10.876;2023-04-03T01:00:11;21.50;;;20.40;;
2175;SDS011;1094;49.902;10.876;2023-04-03T01:02:38;22.10;;;20.90;;
2175;SDS011;1094;49.902;10.876;2023-04-03T01:05:05;21.17;;;19.97;;
2175;SDS011;1094;49.902;10.876;2023-04-03T01:07:32;21.00;;;19.87;;
2175;SDS011;1094;49.902;10.876;2023-04-03T01:10:04;22.00;;;20.70;;
2175;SDS011;1094;49.902;10.876;2023-04-03T01:12:32;21.17;;;19.97;;
2175;SDS011;1094;49.902;10.876;2023-04-03T01:15:00;21.57;;;20.47;;
2175;SDS011;1094;49.902;10.876;2023-04-03T01:17:31;21.50;;;20.43;;
2175;SDS011;1094;49.902;10.876;2023-04-03T01:22:48;21.23;;;20.13;;
2175;SDS011;1094;49.902;10.876;2023-04-03T01:25:21;22.57;;;20.80;;
2175;SDS011;1094;49.902;10.876;2023-04-03T01:27:47;21.50;;;20.30;;
2175;SDS011;1094;49.902;10.876;2023-04-03T01:30:13;21.97;;;20.67;;
2175;SDS011;1094;49.902;10.876;2023-04-03T01:32:39;22.40;;;20.97;;
2175;SDS011;1094;49.902;10.876;2023-04-03T01:35:07;21.83;;;20.63;;
2175;SDS011;1094;49.902;10.876;2023-04-03T01:37:33;21.37;;;20.17;;
2175;SDS011;1094;49.902;10.876;2023-04-03T01:40:00;22.50;;;21.10;;
2175;SDS011;1094;49.902;10.876;2023-04-03T01:42:26;21.07;;;19.87;;
2175;SDS011;1094;49.902;10.876;2023-04-03T01:44:52;21.30;;;20.20;;
2175;SDS011;1094;49.902;10.876;2023-04-03T01:47:18;23.00;;;21.50;;
2175;SDS011;1094;49.902;10.876;2023-04-03T01:49:44;21.27;;;20.17;;
2175;SDS011;1094;49.902;10.876;2023-04-03T01:52:10;22.07;;;20.87;;
2175;SDS011;1094;49.902;10.876;2023-04-03T01:54:36;21.40;;;20.30;;
2175;SDS011;1094;49.902;10.876;2023-04-03T01:57:02;21.63;;;20.50;;
2175;SDS011;1094;49.902;10.876;2023-04-03T01:59:28;22.73;;;21.30;;
2175;SDS011;1094;49.902;10.876;2023-04-03T02:01:54;20.57;;;19.40;;
2175;SDS011;1094;49.902;10.876;2023-04-03T02:04:20;21.30;;;20.13;;
2175;SDS011;1094;49.902;10.876;2023-04-03T02:06:46;21.87;;;20.57;;
2175;SDS011;1094;49.902;10.876;2023-04-03T02:09:12;21.70;;;20.50;;
2175;SDS011;1094;49.902;10.876;2023-04-03T02:11:38;20.93;;;19.60;;
2175;SDS011;1094;49.902;10.876;2023-04-03T02:14:05;21.40;;;20.10;;
2175;SDS011;1094;49.902;10.876;2023-04-03T02:16:31;22.03;;;20.83;;
2175;SDS011;1094;49.902;10.876;2023-04-03T02:18:57;22.57;;;20.90;;
2175;SDS011;1094;49.902;10.876;2023-04-03T02:21:23;21.80;;;20.50;;
2175;SDS011;1094;49.902;10.876;2023-04-03T02:23:49;21.60;;;20.33;;
2175;SDS011;1094;49.902;10.876;2023-04-03T02:26:15;21.63;;;20.43;;
2175;SDS011;1094;49.902;10.876;2023-04-03T02:28:42;21.17;;;20.00;;
2175;SDS011;1094;49.902;10.876;2023-04-03T02:31:09;22.43;;;20.67;;
2175;SDS011;1094;49.902;10.876;2023-04-03T02:33:35;22.10;;;20.80;;
2175;SDS011;1094;49.902;10.876;2023-04-03T02:36:01;22.20;;;20.80;;
2175;SDS011;1094;49.902;10.876;2023-04-03T02:38:28;23.87;;;22.30;;
2175;SDS011;1094;49.902;10.876;2023-04-03T02:40:59;22.60;;;21.10;;
2175;SDS011;1094;49.902;10.876;2023-04-03T02:43:25;21.87;;;20.40;;
2175;SDS011;1094;49.902;10.876;2023-04-03T02:45:51;21.63;;;20.43;;
2175;SDS011;1094;49.902;10.876;2023-04-03T02:48:17;21.10;;;19.90;;
2175;SDS011;1094;49.902;10.876;2023-04-03T02:50:43;22.50;;;20.73;;
2175;SDS011;1094;49.902;10.876;2023-04-03T02:53:09;21.33;;;20.03;;
2175;SDS011;1094;49.902;10.876;2023-04-03T02:55:35;21.47;;;20.37;;
2175;SDS011;1094;49.902;10.876;2023-04-03T02:58:01;22.03;;;20.83;;
2175;SDS011;1094;49.902;10.876;2023-04-03T03:00:27;22.97;;;21.37;;
2175;SDS011;1094;49.902;10.876;2023-04-03T03:02:53;23.13;;;21.63;;
2175;SDS011;1094;49.902;10.876;2023-04-03T03:05:18;21.97;;;20.57;;
2175;SDS011;1094;49.902;10.876;2023-04-03T03:07:44;21.87;;;20.50;;
2175;SDS011;1094;49.902;10.876;2023-04-03T03:10:10;22.30;;;21.00;;
2175;SDS011;1094;49.902;10.876;2023-04-03T03:12:36;22.03;;;20.83;;
2175;SDS011;1094;49.902;10.876;2023-04-03T03:15:02;22.60;;;21.20;;
2175;SDS011;1094;49.902;10.876;2023-04-03T03:17:28;22.47;;;21.07;;
2175;SDS011;1094;49.902;10.876;2023-04-03T03:19:54;23.00;;;21.30;;
2175;SDS011;1094;49.902;10.876;2023-04-03T03:22:20;23.17;;;21.60;;
2175;SDS011;1094;49.902;10.876;2023-04-03T03:24:46;22.30;;;21.00;;
2175;SDS011;1094;49.902;10.876;2023-04-03T03:27:12;23.20;;;21.80;;
2175;SDS011;1094;49.902;10.876;2023-04-03T03:29:38;23.27;;;21.67;;
2175;SDS011;1094;49.902;10.876;2023-04-03T03:32:04;22.50;;;21.10;;
2175;SDS011;1094;49.902;10.876;2023-04-03T03:34:30;22.20;;;20.98;;
2175;SDS011;1094;49.902;10.876;2023-04-03T03:36:56;22.97;;;21.17;;
2175;SDS011;1094;49.902;10.876;2023-04-03T03:39:22;24.17;;;22.37;;
2175;SDS011;1094;49.902;10.876;2023-04-03T03:41:48;23.33;;;21.60;;
2175;SDS011;1094;49.902;10.876;2023-04-03T03:44:15;22.40;;;21.10;;
2175;SDS011;1094;49.902;10.876;2023-04-03T03:46:40;23.70;;;21.63;;
2175;SDS011;1094;49.902;10.876;2023-04-03T03:49:06;22.77;;;21.17;;
2175;SDS011;1094;49.902;10.876;2023-04-03T03:51:32;23.20;;;21.67;;
2175;SDS011;1094;49.902;10.876;2023-04-03T03:53:58;23.03;;;21.67;;
2175;SDS011;1094;49.902;10.876;2023-04-03T03:56:24;21.60;;;20.30;;
2175;SDS011;1094;49.902;10.876;2023-04-03T03:58:51;21.77;;;20.67;;
2175;SDS011;1094;49.902;10.876;2023-04-03T04:01:17;21.97;;;20.67;;
2175;SDS011;1094;49.902;10.876;2023-04-03T04:03:43;22.60;;;21.23;;
2175;SDS011;1094;49.902;10.876;2023-04-03T04:06:09;22.53;;;21.20;;
2175;SDS011;1094;49.902;10.876;2023-04-03T04:08:35;22.70;;;21.30;;
2175;SDS011;1094;49.902;10.876;2023-04-03T04:11:01;22.73;;;21.03;;
2175;SDS011;1094;49.902;10.876;2023-04-03T04:13:27;21.97;;;20.70;;
2175;SDS011;1094;49.902;10.876;2023-04-03T04:15:52;23.70;;;22.00;;
2175;SDS011;1094;49.902;10.876;2023-04-03T04:18:18;22.70;;;21.20;;
2175;SDS011;1094;49.902;10.876;2023-04-03T04:20:46;22.70;;;21.10;;
2175;SDS011;1094;49.902;10.876;2023-04-03T04:23:12;23.57;;;21.47;;
2175;SDS011;1094;49.902;10.876;2023-04-03T04:25:38;23.43;;;21.83;;
2175;SDS011;1094;49.902;10.876;2023-04-03T04:28:04;22.60;;;21.27;;
2175;SDS011;1094;49.902;10.876;2023-04-03T04:30:30;22.23;;;20.92;;
2175;SDS011;1094;49.902;10.876;2023-04-03T04:32:55;24.40;;;22.43;;
2175;SDS011;1094;49.902;10.876;2023-04-03T04:35:21;24.60;;;22.87;;
2175;SDS011;1094;49.902;10.876;2023-04-03T04:37:47;24.37;;;22.50;;
2175;SDS011;1094;49.902;10.876;2023-04-03T04:40:13;27.90;;;24.80;;
2175;SDS011;1094;49.902;10.876;2023-04-03T04:42:40;25.23;;;22.98;;
2175;SDS011;1094;49.902;10.876;2023-04-03T04:45:06;24.07;;;22.17;;
2175;SDS011;1094;49.902;10.876;2023-04-03T04:47:32;25.13;;;23.42;;
2175;SDS011;1094;49.902;10.876;2023-04-03T04:49:58;25.77;;;23.67;;
2175;SDS011;1094;49.902;10.876;2023-04-03T04:52:24;24.15;;;22.63;;
2175;SDS011;1094;49.902;10.876;2023-04-03T04:54:50;24.80;;;22.90;;
2175;SDS011;1094;49.902;10.876;2023-04-03T04:57:16;24.90;;;23.10;;
2175;SDS011;1094;49.902;10.876;2023-04-03T04:59:42;22.90;;;21.47;;
2175;SDS011;1094;49.902;10.876;2023-04-03T05:02:08;23.93;;;22.53;;
2175;SDS011;1094;49.902;10.876;2023-04-03T05:04:34;23.60;;;22.00;;
2175;SDS011;1094;49.902;10.876;2023-04-03T05:07:00;24.97;;;23.10;;
2175;SDS011;1094;49.902;10.876;2023-04-03T05:09:26;24.60;;;22.77;;
2175;SDS011;1094;49.902;10.876;2023-04-03T05:11:52;25.85;;;23.02;;
2175;SDS011;1094;49.902;10.876;2023-04-03T05:14:18;23.53;;;21.93;;
2175;SDS011;1094;49.902;10.876;2023-04-03T05:16:43;23.83;;;22.00;;
2175;SDS011;1094;49.902;10.876;2023-04-03T05:19:09;23.20;;;21.70;;
2175;SDS011;1094;49.902;10.876;2023-04-03T05:21:35;23.27;;;21.87;;
2175;SDS011;1094;49.902;10.876;2023-04-03T05:24:01;24.80;;;22.97;;
2175;SDS011;1094;49.902;10.876;2023-04-03T05:26:28;23.08;;;21.42;;
2175;SDS011;1094;49.902;10.876;2023-04-03T05:28:54;25.23;;;22.95;;
2175;SDS011;1094;49.902;10.876;2023-04-03T05:31:20;24.95;;;23.10;;
2175;SDS011;1094;49.902;10.876;2023-04-03T05:33:46;22.37;;;21.17;;
2175;SDS011;1094;49.902;10.876;2023-04-03T05:36:12;22.40;;;21.03;;
2175;SDS011;1094;49.902;10.876;2023-04-03T05:38:39;21.97;;;20.50;;
2175;SDS011;1094;49.902;10.876;2023-04-03T05:41:05;22.47;;;20.97;;
2175;SDS011;1094;49.902;10.876;2023-04-03T05:43:31;22.17;;;20.60;;
2175;SDS011;1094;49.902;10.876;2023-04-03T05:45:59;23.77;;;22.00;;
2175;SDS011;1094;49.902;10.876;2023-04-03T05:48:25;21.30;;;20.10;;
2175;SDS011;1094;49.902;10.876;2023-04-03T05:50:51;23.23;;;21.50;;
2175;SDS011;1094;49.902;10.876;2023-04-03T05:53:18;22.77;;;21.20;;
2175;SDS011;1094;49.902;10.876;2023-04-03T05:55:46;21.53;;;19.90;;
2175;SDS011;1094;49.902;10.876;2023-04-03T05:58:12;21.63;;;20.37;;
2175;SDS011;1094;49.902;10.876;2023-04-03T06:00:38;23.63;;;22.27;;
2175;SDS011;1094;49.902;10.876;2023-04-03T06:03:05;22.73;;;21.43;;
2175;SDS011;1094;49.902;10.876;2023-04-03T06:05:31;23.20;;;21.30;;
2175;SDS011;1094;49.902;10.876;2023-04-03T06:07:57;23.30;;;21.10;;
2175;SDS011;1094;49.902;10.876;2023-04-03T06:10:23;22.60;;;21.00;;
2175;SDS011;1094;49.902;10.876;2023-04-03T06:12:49;22.00;;;20.57;;
2175;SDS011;1094;49.902;10.876;2023-04-03T06:15:15;21.80;;;20.17;;
2175;SDS011;1094;49.902;10.876;2023-04-03T06:17:41;20.60;;;19.40;;
2175;SDS011;1094;49.902;10.876;2023-04-03T06:20:08;20.70;;;19.60;;
2175;SDS011;1094;49.902;10.876;2023-04-03T06:25:10;21.20;;;19.87;;
2175;SDS011;1094;49.902;10.876;2023-04-03T06:27:37;24.03;;;21.73;;
2175;SDS011;1094;49.902;10.876;2023-04-03T06:30:04;23.00;;;21.13;;
2175;SDS011;1094;49.902;10.876;2023-04-03T06:32:30;22.90;;;21.33;;
2175;SDS011;1094;49.902;10.876;2023-04-03T06:34:56;22.17;;;20.63;;
2175;SDS011;1094;49.902;10.876;2023-04-03T06:37:23;21.93;;;20.57;;
2175;SDS011;1094;49.902;10.876;2023-04-03T06:39:51;21.87;;;20.37;;
2175;SDS011;1094;49.902;10.876;2023-04-03T06:42:17;21.03;;;19.57;;
2175;SDS011;1094;49.902;10.876;2023-04-03T06:44:43;21.20;;;20.00;;
2175;SDS011;1094;49.902;10.876;2023-04-03T06:47:10;20.73;;;19.53;;
2175;SDS011;1094;49.902;10.876;2023-04-03T06:49:37;20.73;;;19.10;;
2175;SDS011;1094;49.902;10.876;2023-04-03T06:52:03;20.60;;;19.40;;
2175;SDS011;1094;49.902;10.876;2023-04-03T06:54:30;20.40;;;18.63;;
2175;SDS011;1094;49.902;10.876;2023-04-03T06:56:56;20.50;;;19.20;;
2175;SDS011;1094;49.902;10.876;2023-04-03T06:59:23;21.73;;;20.07;;
2175;SDS011;1094;49.902;10.876;2023-04-03T07:01:49;20.60;;;19.30;;
2175;SDS011;1094;49.902;10.876;2023-04-03T07:04:15;21.17;;;19.77;;
2175;SDS011;1094;49.902;10.876;2023-04-03T07:06:41;20.50;;;19.20;;
2175;SDS011;1094;49.902;10.876;2023-04-03T07:09:08;20.40;;;19.20;;
2175;SDS011;1094;49.902;10.876;2023-04-03T07:11:34;20.33;;;18.90;;
2175;SDS011;1094;49.902;10.876;2023-04-03T07:14:01;20.23;;;19.13;;
2175;SDS011;1094;49.902;10.876;2023-04-03T07:16:27;21.27;;;19.80;;
2175;SDS011;1094;49.902;10.876;2023-04-03T07:18:53;21.50;;;19.90;;
2175;SDS011;1094;49.902;10.876;2023-04-03T07:21:19;19.20;;;18.20;;
2175;SDS011;1094;49.902;10.876;2023-04-03T07:23:45;20.07;;;19.03;;
2175;SDS011;1094;49.902;10.876;2023-04-03T07:26:10;21.23;;;19.80;;
2175;SDS011;1094;49.902;10.876;2023-04-03T07:28:36;19.73;;;18.43;;
2175;SDS011;1094;49.902;10.876;2023-04-03T07:31:06;20.63;;;19.13;;
2175;SDS011;1094;49.902;10.876;2023-04-03T07:33:33;19.90;;;18.70;;
2175;SDS011;1094;49.902;10.876;2023-04-03T07:35:59;20.13;;;18.83;;
2175;SDS011;1094;49.902;10.876;2023-04-03T07:38:25;20.63;;;19.07;;
2175;SDS011;1094;49.902;10.876;2023-04-03T07:40:52;19.73;;;18.63;;
2175;SDS011;1094;49.902;10.876;2023-04-03T07:43:18;20.10;;;18.77;;
2175;SDS011;1094;49.902;10.876;2023-04-03T07:45:45;20.77;;;19.47;;
2175;SDS011;1094;49.902;10.876;2023-04-03T07:48:12;20.30;;;19.10;;
2175;SDS011;1094;49.902;10.876;2023-04-03T07:50:39;20.50;;;19.00;;
2175;SDS011;1094;49.902;10.876;2023-04-03T07:53:05;21.03;;;19.40;;
2175;SDS011;1094;49.902;10.876;2023-04-03T07:55:32;21.00;;;19.57;;
2175;SDS011;1094;49.902;10.876;2023-04-03T07:57:58;20.20;;;19.10;;
2175;SDS011;1094;49.902;10.876;2023-04-03T08:00:24;21.90;;;20.30;;
2175;SDS011;1094;49.902;10.876;2023-04-03T08:02:50;20.07;;;18.60;;
2175;SDS011;1094;49.902;10.876;2023-04-03T08:05:17;19.93;;;18.63;;
2175;SDS011;1094;49.902;10.876;2023-04-03T08:07:43;20.15;;;18.95;;
2175;SDS011;1094;49.902;10.876;2023-04-03T08:10:10;19.10;;;18.10;;
2175;SDS011;1094;49.902;10.876;2023-04-03T08:12:36;19.50;;;18.40;;
2175;SDS011;1094;49.902;10.876;2023-04-03T08:15:02;18.90;;;17.90;;
2175;SDS011;1094;49.902;10.876;2023-04-03T08:17:28;19.33;;;18.33;;
2175;SDS011;1094;49.902;10.876;2023-04-03T08:19:54;19.80;;;18.60;;
2175;SDS011;1094;49.902;10.876;2023-04-03T08:22:20;19.90;;;18.80;;
2175;SDS011;1094;49.902;10.876;2023-04-03T08:24:46;20.50;;;19.20;;
2175;SDS011;1094;49.902;10.876;2023-04-03T08:27:12;19.73;;;18.63;;
2175;SDS011;1094;49.902;10.876;2023-04-03T08:29:38;20.10;;;18.80;;
2175;SDS011;1094;49.902;10.876;2023-04-03T08:32:04;20.70;;;19.50;;
2175;SDS011;1094;49.902;10.876;2023-04-03T08:34:32;19.93;;;18.70;;
2175;SDS011;1094;49.902;10.876;2023-04-03T08:37:00;19.70;;;18.37;;
2175;SDS011;1094;49.902;10.876;2023-04-03T08:39:27;20.60;;;19.30;;
2175;SDS011;1094;49.902;10.876;2023-04-03T08:41:53;20.37;;;19.17;;
2175;SDS011;1094;49.902;10.876;2023-04-03T08:47:01;19.53;;;18.33;;
2175;SDS011;1094;49.902;10.876;2023-04-03T08:49:30;18.97;;;17.87;;
2175;SDS011;1094;49.902;10.876;2023-04-03T08:51:57;19.00;;;17.90;;
2175;SDS011;1094;49.902;10.876;2023-04-03T09:00:25;18.80;;;17.80;;
2175;SDS011;1094;49.902;10.876;2023-04-03T09:02:53;18.93;;;17.83;;
2175;SDS011;1094;49.902;10.876;2023-04-03T09:05:20;19.53;;;18.33;;
2175;SDS011;1094;49.902;10.876;2023-04-03T09:07:57;19.73;;;18.47;;
2175;SDS011;1094;49.902;10.876;2023-04-03T09:10:27;20.93;;;19.63;;
2175;SDS011;1094;49.902;10.876;2023-04-03T09:12:58;20.40;;;19.30;;
2175;SDS011;1094;49.902;10.876;2023-04-03T09:15:25;21.37;;;20.00;;
2175;SDS011;1094;49.902;10.876;2023-04-03T09:20:23;20.10;;;18.80;;
2175;SDS011;1094;49.902;10.876;2023-04-03T09:22:51;20.83;;;19.53;;
2175;SDS011;1094;49.902;10.876;2023-04-03T09:27:45;19.77;;;18.67;;
2175;SDS011;1094;49.902;10.876;2023-04-03T09:30:23;19.87;;;18.77;;
2175;SDS011;1094;49.902;10.876;2023-04-03T09:32:51;20.93;;;19.57;;
2175;SDS011;1094;49.902;10.876;2023-04-03T09:35:25;20.47;;;19.33;;
2175;SDS011;1094;49.902;10.876;2023-04-03T09:37:52;20.60;;;19.40;;
2175;SDS011;1094;49.902;10.876;2023-04-03T09:40:29;20.43;;;19.23;;
2175;SDS011;1094;49.902;10.876;2023-04-03T09:42:56;20.70;;;19.50;;
2175;SDS011;1094;49.902;10.876;2023-04-03T09:50:36;18.47;;;17.27;;
2175;SDS011;1094;49.902;10.876;2023-04-03T09:53:06;19.50;;;18.40;;
2175;SDS011;1094;49.902;10.876;2023-04-03T09:55:33;19.83;;;18.63;;
2175;SDS011;1094;49.902;10.876;2023-04-03T09:58:20;20.03;;;18.50;;
2175;SDS011;1094;49.902;10.876;2023-04-03T10:00:53;19.80;;;18.70;;
2175;SDS011;1094;49.902;10.876;2023-04-03T10:03:32;19.73;;;18.63;;
2175;SDS011;1094;49.902;10.876;2023-04-03T10:06:00;20.20;;;19.00;;
2175;SDS011;1094;49.902;10.876;2023-04-03T10:11:09;21.17;;;19.97;;
2175;SDS011;1094;49.902;10.876;2023-04-03T10:13:35;20.60;;;19.30;;
2175;SDS011;1094;49.902;10.876;2023-04-03T10:16:03;19.87;;;18.87;;
2175;SDS011;1094;49.902;10.876;2023-04-03T10:18:45;20.60;;;19.40;;
2175;SDS011;1094;49.902;10.876;2023-04-03T10:21:20;19.70;;;18.70;;
2175;SDS011;1094;49.902;10.876;2023-04-03T10:23:51;19.17;;;18.13;;
2175;SDS011;1094;49.902;10.876;2023-04-03T10:26:29;20.50;;;19.30;;
2175;SDS011;1094;49.902;10.876;2023-04-03T10:31:53;19.73;;;18.47;;
2175;SDS011;1094;49.902;10.876;2023-04-03T10:34:37;19.50;;;18.20;;
2175;SDS011;1094;49.902;10.876;2023-04-03T10:37:24;19.83;;;18.63;;
2175;SDS011;1094;49.902;10.876;2023-04-03T10:39:59;19.40;;;18.20;;
2175;SDS011;1094;49.902;10.876;2023-04-03T10:42:39;19.40;;;18.30;;
2175;SDS011;1094;49.902;10.876;2023-04-03T10:45:19;19.03;;;18.07;;
2175;SDS011;1094;49.902;10.876;2023-04-03T10:47:53;19.40;;;18.20;;
2175;SDS011;1094;49.902;10.876;2023-04-03T10:57:52;19.30;;;18.20;;
2175;SDS011;1094;49.902;10.876;2023-04-03T11:00:21;18.90;;;17.90;;
2175;SDS011;1094;49.902;10.876;2023-04-03T11:02:50;20.23;;;19.00;;
2175;SDS011;1094;49.902;10.876;2023-04-03T11:05:34;18.60;;;17.67;;
2175;SDS011;1094;49.902;10.876;2023-04-03T11:08:03;19.17;;;17.97;;
2175;SDS011;1094;49.902;10.876;2023-04-03T11:10:35;18.27;;;17.37;;
2175;SDS011;1094;49.902;10.876;2023-04-03T11:13:02;18.50;;;17.50;;
2175;SDS011;1094;49.902;10.876;2023-04-03T11:15:33;19.13;;;18.10;;
2175;SDS011;1094;49.902;10.876;2023-04-03T11:18:04;19.10;;;18.10;;
2175;SDS011;1094;49.902;10.876;2023-04-03T11:20:32;19.20;;;18.20;;
2175;SDS011;1094;49.902;10.876;2023-04-03T11:25:43;19.10;;;18.10;;
2175;SDS011;1094;49.902;10.876;2023-04-03T11:28:12;18.70;;;17.80;;
2175;SDS011;1094;49.902;10.876;2023-04-03T11:30:58;19.60;;;18.43;;
2175;SDS011;1094;49.902;10.876;2023-04-03T11:35:59;19.20;;;18.20;;
2175;SDS011;1094;49.902;10.876;2023-04-03T11:38:28;19.17;;;18.17;;
2175;SDS011;1094;49.902;10.876;2023-04-03T11:40:55;19.80;;;18.60;;
2175;SDS011;1094;49.902;10.876;2023-04-03T11:43:25;19.50;;;18.50;;
2175;SDS011;1094;49.902;10.876;2023-04-03T11:50:47;19.60;;;18.50;;
2175;SDS011;1094;49.902;10.876;2023-04-03T11:55:43;18.73;;;17.83;;
2175;SDS011;1094;49.902;10.876;2023-04-03T11:58:17;18.90;;;17.90;;
2175;SDS011;1094;49.902;10.876;2023-04-03T12:05:55;19.03;;;18.03;;
2175;SDS011;1094;49.902;10.876;2023-04-03T12:16:29;20.20;;;19.03;;
2175;SDS011;1094;49.902;10.876;2023-04-03T12:39:25;19.00;;;18.00;;
2175;SDS011;1094;49.902;10.876;2023-04-03T12:42:06;19.43;;;18.30;;
2175;SDS011;1094;49.902;10.876;2023-04-03T12:44:40;19.40;;;18.40;;
2175;SDS011;1094;49.902;10.876;2023-04-03T12:47:16;19.73;;;18.73;;
2175;SDS011;1094;49.902;10.876;2023-04-03T12:49:47;19.93;;;18.83;;
2175;SDS011;1094;49.902;10.876;2023-04-03T12:54:44;20.10;;;19.00;;
2175;SDS011;1094;49.902;10.876;2023-04-03T12:57:21;19.77;;;18.67;;
2175;SDS011;1094;49.902;10.876;2023-04-03T12:59:47;20.00;;;18.60;;
2175;SDS011;1094;49.902;10.876;2023-04-03T13:04:45;20.27;;;19.07;;
2175;SDS011;1094;49.902;10.876;2023-04-03T13:07:22;20.47;;;19.17;;
2175;SDS011;1094;49.902;10.876;2023-04-03T13:10:00;20.30;;;19.10;;
2175;SDS011;1094;49.902;10.876;2023-04-03T13:12:27;19.27;;;18.37;;
2175;SDS011;1094;49.902;10.876;2023-04-03T13:14:54;19.80;;;18.90;;
2175;SDS011;1094;49.902;10.876;2023-04-03T13:17:21;20.67;;;19.13;;
2175;SDS011;1094;49.902;10.876;2023-04-03T13:19:47;19.87;;;18.77;;
2175;SDS011;1094;49.902;10.876;2023-04-03T13:22:25;20.30;;;19.10;;
2175;SDS011;1094;49.902;10.876;2023-04-03T13:24:52;20.90;;;19.30;;
2175;SDS011;1094;49.902;10.876;2023-04-03T13:27:19;21.00;;;19.90;;
2175;SDS011;1094;49.902;10.876;2023-04-03T13:29:49;21.13;;;19.83;;
2175;SDS011;1094;49.902;10.876;2023-04-03T13:32:18;20.87;;;19.77;;
2175;SDS011;1094;49.902;10.876;2023-04-03T13:34:45;21.43;;;20.33;;
2175;SDS011;1094;49.902;10.876;2023-04-03T13:37:21;21.50;;;19.90;;
2175;SDS011;1094;49.902;10.876;2023-04-03T13:39:56;21.50;;;20.30;;
2175;SDS011;1094;49.902;10.876;2023-04-03T13:42:30;21.13;;;20.03;;
2175;SDS011;1094;49.902;10.876;2023-04-03T13:47:42;21.70;;;20.30;;
2175;SDS011;1094;49.902;10.876;2023-04-03T13:52:47;20.80;;;19.80;;
2175;SDS011;1094;49.902;10.876;2023-04-03T13:55:18;21.30;;;20.10;;
2175;SDS011;1094;49.902;10.876;2023-04-03T13:57:49;20.77;;;19.47;;
2175;SDS011;1094;49.902;10.876;2023-04-03T14:00:18;20.90;;;19.80;;
2175;SDS011;1094;49.902;10.876;2023-04-03T14:02:46;21.67;;;20.27;;
2175;SDS011;1094;49.902;10.876;2023-04-03T14:05:12;21.93;;;20.73;;
2175;SDS011;1094;49.902;10.876;2023-04-03T14:07:38;20.70;;;19.50;;
2175;SDS011;1094;49.902;10.876;2023-04-03T14:10:05;21.60;;;20.23;;
2175;SDS011;1094;49.902;10.876;2023-04-03T14:12:32;21.37;;;20.10;;
2175;SDS011;1094;49.902;10.876;2023-04-03T14:15:02;21.63;;;20.37;;
2175;SDS011;1094;49.902;10.876;2023-04-03T14:17:28;21.07;;;19.87;;
2175;SDS011;1094;49.902;10.876;2023-04-03T14:19:55;21.10;;;20.00;;
2175;SDS011;1094;49.902;10.876;2023-04-03T14:22:23;20.60;;;19.53;;
2175;SDS011;1094;49.902;10.876;2023-04-03T14:24:50;20.67;;;19.57;;
2175;SDS011;1094;49.902;10.876;2023-04-03T14:29:42;20.73;;;19.63;;
2175;SDS011;1094;49.902;10.876;2023-04-03T14:32:10;20.40;;;19.40;;
2175;SDS011;1094;49.902;10.876;2023-04-03T14:34:36;20.67;;;19.30;;
2175;SDS011;1094;49.902;10.876;2023-04-03T14:37:04;20.80;;;19.60;;
2175;SDS011;1094;49.902;10.876;2023-04-03T14:39:30;20.70;;;19.50;;
2175;SDS011;1094;49.902;10.876;2023-04-03T14:41:56;20.50;;;19.40;;
2175;SDS011;1094;49.902;10.876;2023-04-03T14:44:22;20.73;;;19.73;;
2175;SDS011;1094;49.902;10.876;2023-04-03T14:46:48;19.93;;;18.93;;
2175;SDS011;1094;49.902;10.876;2023-04-03T14:49:15;19.97;;;18.80;;
2175;SDS011;1094;49.902;10.876;2023-04-03T14:51:42;20.17;;;19.07;;
2175;SDS011;1094;49.902;10.876;2023-04-03T14:54:12;20.23;;;19.23;;
2175;SDS011;1094;49.902;10.876;2023-04-03T14:56:39;20.70;;;19.47;;
2175;SDS011;1094;49.902;10.876;2023-04-03T14:59:08;20.13;;;19.13;;
2175;SDS011;1094;49.902;10.876;2023-04-03T15:01:35;20.70;;;19.60;;
2175;SDS011;1094;49.902;10.876;2023-04-03T15:04:01;21.77;;;19.83;;
2175;SDS011;1094;49.902;10.876;2023-04-03T15:06:27;20.20;;;19.23;;
2175;SDS011;1094;49.902;10.876;2023-04-03T15:08:53;20.90;;;19.70;;
2175;SDS011;1094;49.902;10.876;2023-04-03T15:11:18;20.47;;;19.47;;
2175;SDS011;1094;49.902;10.876;2023-04-03T15:13:45;21.10;;;20.10;;
2175;SDS011;1094;49.902;10.876;2023-04-03T15:16:16;20.20;;;19.30;;
2175;SDS011;1094;49.902;10.876;2023-04-03T15:18:42;20.70;;;19.60;;
2175;SDS011;1094;49.902;10.876;2023-04-03T15:21:08;21.10;;;19.40;;
2175;SDS011;1094;49.902;10.876;2023-04-03T15:23:35;19.90;;;18.90;;
2175;SDS011;1094;49.902;10.876;2023-04-03T15:26:01;20.90;;;19.80;;
2175;SDS011;1094;49.902;10.876;2023-04-03T15:28:28;20.60;;;19.30;;
2175;SDS011;1094;49.902;10.876;2023-04-03T15:30:55;20.50;;;19.10;;
2175;SDS011;1094;49.902;10.876;2023-04-03T15:33:21;20.87;;;19.67;;
2175;SDS011;1094;49.902;10.876;2023-04-03T15:35:48;20.00;;;18.87;;
2175;SDS011;1094;49.902;10.876;2023-04-03T15:38:14;21.07;;;19.87;;
2175;SDS011;1094;49.902;10.876;2023-04-03T15:40:40;20.93;;;19.83;;
2175;SDS011;1094;49.902;10.876;2023-04-03T15:43:07;20.97;;;19.87;;
2175;SDS011;1094;49.902;10.876;2023-04-03T15:45:33;21.00;;;19.40;;
2175;SDS011;1094;49.902;10.876;2023-04-03T15:48:01;20.17;;;19.17;;
2175;SDS011;1094;49.902;10.876;2023-04-03T15:50:27;20.47;;;19.17;;
2175;SDS011;1094;49.902;10.876;2023-04-03T15:52:53;20.80;;;19.70;;
2175;SDS011;1094;49.902;10.876;2023-04-03T15:55:24;20.13;;;19.13;;
2175;SDS011;1094;49.902;10.876;2023-04-03T15:57:51;19.90;;;19.00;;
2175;SDS011;1094;49.902;10.876;2023-04-03T16:00:17;19.70;;;18.70;;
2175;SDS011;1094;49.902;10.876;2023-04-03T16:02:44;20.90;;;19.80;;
2175;SDS011;1094;49.902;10.876;2023-04-03T16:05:10;20.37;;;19.40;;
2175;SDS011;1094;49.902;10.876;2023-04-03T16:07:38;19.67;;;18.77;;
2175;SDS011;1094;49.902;10.876;2023-04-03T16:10:05;20.50;;;19.30;;
2175;SDS011;1094;49.902;10.876;2023-04-03T16:12:31;21.63;;;20.17;;
2175;SDS011;1094;49.902;10.876;2023-04-03T16:14:57;20.43;;;19.33;;